Bolling AFB, District of Columbia
Current Conditions -  °F | °C
As of 6:52 PM on Friday 24 Oct 2014 (Local Time) from KDCA Reporting Station
Broken Clouds Broken Clouds  
Wind Chill: 66°   Ceiling: 25000
Heat Index: 66°   Visibility: 10mi
Dew Point: 38°   Wind: 8mph
Humidity: 36%   Direction: 280°W
Pressure: 29.93"   Gusts: NA
Location:  38.8336°N, 77.0036°W
Report Text: KDCA 242252Z 28007KT 10SM FEW150 BKN250 19/03 A2993 RMK AO2 SLP133 T01890033
Loading
Personal Weather Stations






























Interactive Weather Map
Tropical Storm Tracking
New forecast layout! Learn more

10-Day Weather Forecast

Advertisements
Track Severe Weather on mobile